sensor_id;sensor_type;location;lat;lon;timestamp;P1;durP1;ratioP1;P2;durP2;ratioP2
54388;SDS011;40975;50.390;8.640;2024-03-23T00:52:56;26.48;;;9.95;;
54388;SDS011;40975;50.390;8.640;2024-03-23T00:55:22;20.98;;;9.38;;
54388;SDS011;40975;50.390;8.640;2024-03-23T00:57:47;23.50;;;9.60;;
54388;SDS011;40975;50.390;8.640;2024-03-23T01:00:12;24.33;;;9.65;;
54388;SDS011;40975;50.390;8.640;2024-03-23T01:02:38;23.58;;;10.15;;
54388;SDS011;40975;50.390;8.640;2024-03-23T01:05:04;27.02;;;10.10;;
54388;SDS011;40975;50.390;8.640;2024-03-23T01:07:29;22.77;;;11.40;;
54388;SDS011;40975;50.390;8.640;2024-03-23T01:09:54;23.92;;;10.38;;
54388;SDS011;40975;50.390;8.640;2024-03-23T01:12:20;24.00;;;10.68;;
54388;SDS011;40975;50.390;8.640;2024-03-23T01:14:45;21.48;;;10.38;;
54388;SDS011;40975;50.390;8.640;2024-03-23T01:17:11;24.05;;;10.00;;
54388;SDS011;40975;50.390;8.640;2024-03-23T01:19:36;26.95;;;10.63;;
54388;SDS011;40975;50.390;8.640;2024-03-23T01:22:01;24.95;;;10.00;;
54388;SDS011;40975;50.390;8.640;2024-03-23T01:24:27;27.23;;;10.80;;
54388;SDS011;40975;50.390;8.640;2024-03-23T01:26:52;24.95;;;10.38;;
54388;SDS011;40975;50.390;8.640;2024-03-23T01:29:17;23.88;;;10.05;;
54388;SDS011;40975;50.390;8.640;2024-03-23T01:31:43;28.00;;;11.27;;
54388;SDS011;40975;50.390;8.640;2024-03-23T01:34:08;24.33;;;11.07;;
54388;SDS011;40975;50.390;8.640;2024-03-23T01:36:33;27.75;;;11.15;;
54388;SDS011;40975;50.390;8.640;2024-03-23T01:38:59;28.80;;;11.77;;
54388;SDS011;40975;50.390;8.640;2024-03-23T01:41:24;27.30;;;11.88;;
54388;SDS011;40975;50.390;8.640;2024-03-23T01:43:50;26.83;;;10.95;;
54388;SDS011;40975;50.390;8.640;2024-03-23T01:46:15;25.67;;;10.02;;
54388;SDS011;40975;50.390;8.640;2024-03-23T01:48:42;27.88;;;10.57;;
54388;SDS011;40975;50.390;8.640;2024-03-23T01:51:07;30.45;;;11.23;;
54388;SDS011;40975;50.390;8.640;2024-03-23T01:53:33;30.48;;;9.98;;
54388;SDS011;40975;50.390;8.640;2024-03-23T01:55:58;23.52;;;11.18;;
54388;SDS011;40975;50.390;8.640;2024-03-23T01:58:23;27.90;;;11.23;;
54388;SDS011;40975;50.390;8.640;2024-03-23T02:00:49;26.02;;;11.45;;
54388;SDS011;40975;50.390;8.640;2024-03-23T02:03:27;28.38;;;11.50;;
54388;SDS011;40975;50.390;8.640;2024-03-23T02:05:53;26.95;;;10.75;;
54388;SDS011;40975;50.390;8.640;2024-03-23T02:08:20;25.60;;;11.70;;
54388;SDS011;40975;50.390;8.640;2024-03-23T02:10:50;28.42;;;11.10;;
54388;SDS011;40975;50.390;8.640;2024-03-23T02:13:16;30.45;;;12.30;;
54388;SDS011;40975;50.390;8.640;2024-03-23T02:15:42;24.85;;;11.18;;
54388;SDS011;40975;50.390;8.640;2024-03-23T02:18:08;27.35;;;11.45;;
54388;SDS011;40975;50.390;8.640;2024-03-23T02:20:34;25.27;;;10.10;;
54388;SDS011;40975;50.390;8.640;2024-03-23T02:23:00;23.70;;;10.45;;
54388;SDS011;40975;50.390;8.640;2024-03-23T02:25:25;31.27;;;11.07;;
54388;SDS011;40975;50.390;8.640;2024-03-23T02:27:51;25.75;;;10.05;;
54388;SDS011;40975;50.390;8.640;2024-03-23T02:30:18;24.50;;;10.13;;
54388;SDS011;40975;50.390;8.640;2024-03-23T02:32:43;26.77;;;11.32;;
54388;SDS011;40975;50.390;8.640;2024-03-23T02:35:08;24.20;;;10.30;;
54388;SDS011;40975;50.390;8.640;2024-03-23T02:37:34;27.90;;;11.52;;
54388;SDS011;40975;50.390;8.640;2024-03-23T02:39:59;26.15;;;11.05;;
54388;SDS011;40975;50.390;8.640;2024-03-23T02:42:25;26.23;;;10.57;;
54388;SDS011;40975;50.390;8.640;2024-03-23T02:44:50;22.23;;;9.77;;
54388;SDS011;40975;50.390;8.640;2024-03-23T02:47:16;28.55;;;11.63;;
54388;SDS011;40975;50.390;8.640;2024-03-23T02:49:41;27.10;;;11.68;;
54388;SDS011;40975;50.390;8.640;2024-03-23T02:52:07;25.60;;;12.32;;
54388;SDS011;40975;50.390;8.640;2024-03-23T02:54:32;33.97;;;13.30;;
54388;SDS011;40975;50.390;8.640;2024-03-23T02:56:57;25.13;;;11.30;;
54388;SDS011;40975;50.390;8.640;2024-03-23T02:59:23;30.23;;;13.38;;
54388;SDS011;40975;50.390;8.640;2024-03-23T03:01:48;27.42;;;12.00;;
54388;SDS011;40975;50.390;8.640;2024-03-23T03:04:13;28.08;;;12.00;;
54388;SDS011;40975;50.390;8.640;2024-03-23T03:06:39;30.30;;;11.65;;
54388;SDS011;40975;50.390;8.640;2024-03-23T03:09:06;32.05;;;11.75;;
54388;SDS011;40975;50.390;8.640;2024-03-23T03:11:31;28.58;;;11.88;;
54388;SDS011;40975;50.390;8.640;2024-03-23T03:13:56;29.58;;;12.68;;
54388;SDS011;40975;50.390;8.640;2024-03-23T03:16:22;33.00;;;12.63;;
54388;SDS011;40975;50.390;8.640;2024-03-23T03:18:47;29.60;;;12.95;;
54388;SDS011;40975;50.390;8.640;2024-03-23T03:21:12;28.50;;;12.18;;
54388;SDS011;40975;50.390;8.640;2024-03-23T03:23:38;28.33;;;12.25;;
54388;SDS011;40975;50.390;8.640;2024-03-23T03:26:06;35.67;;;12.50;;
54388;SDS011;40975;50.390;8.640;2024-03-23T03:28:32;29.73;;;12.55;;
54388;SDS011;40975;50.390;8.640;2024-03-23T03:30:59;38.67;;;14.68;;
54388;SDS011;40975;50.390;8.640;2024-03-23T03:33:28;29.17;;;12.48;;
54388;SDS011;40975;50.390;8.640;2024-03-23T03:35:54;27.35;;;12.45;;
54388;SDS011;40975;50.390;8.640;2024-03-23T03:38:19;33.28;;;13.43;;
54388;SDS011;40975;50.390;8.640;2024-03-23T03:40:45;33.15;;;13.80;;
54388;SDS011;40975;50.390;8.640;2024-03-23T03:43:10;32.65;;;13.52;;
54388;SDS011;40975;50.390;8.640;2024-03-23T03:45:36;33.20;;;12.95;;
54388;SDS011;40975;50.390;8.640;2024-03-23T03:48:02;32.53;;;13.32;;
54388;SDS011;40975;50.390;8.640;2024-03-23T03:50:27;32.70;;;13.00;;
54388;SDS011;40975;50.390;8.640;2024-03-23T03:52:53;29.35;;;12.93;;
54388;SDS011;40975;50.390;8.640;2024-03-23T03:55:18;28.35;;;13.10;;
54388;SDS011;40975;50.390;8.640;2024-03-23T03:57:43;30.70;;;12.93;;
54388;SDS011;40975;50.390;8.640;2024-03-23T04:00:09;32.92;;;12.70;;
54388;SDS011;40975;50.390;8.640;2024-03-23T04:02:38;30.65;;;11.60;;
54388;SDS011;40975;50.390;8.640;2024-03-23T04:05:04;29.55;;;11.77;;
54388;SDS011;40975;50.390;8.640;2024-03-23T04:07:29;25.35;;;11.20;;
54388;SDS011;40975;50.390;8.640;2024-03-23T04:09:55;25.80;;;11.13;;
54388;SDS011;40975;50.390;8.640;2024-03-23T04:12:20;23.50;;;10.52;;
54388;SDS011;40975;50.390;8.640;2024-03-23T04:14:45;18.75;;;8.93;;
54388;SDS011;40975;50.390;8.640;2024-03-23T04:17:11;17.27;;;7.00;;
54388;SDS011;40975;50.390;8.640;2024-03-23T04:19:36;16.00;;;6.40;;
54388;SDS011;40975;50.390;8.640;2024-03-23T04:22:02;12.25;;;4.82;;
54388;SDS011;40975;50.390;8.640;2024-03-23T04:24:28;11.32;;;5.53;;
54388;SDS011;40975;50.390;8.640;2024-03-23T04:26:54;10.15;;;4.57;;
54388;SDS011;40975;50.390;8.640;2024-03-23T04:29:19;6.93;;;2.30;;
54388;SDS011;40975;50.390;8.640;2024-03-23T04:31:45;3.80;;;1.92;;
54388;SDS011;40975;50.390;8.640;2024-03-23T04:34:10;4.88;;;1.38;;
54388;SDS011;40975;50.390;8.640;2024-03-23T04:36:36;2.45;;;0.85;;
54388;SDS011;40975;50.390;8.640;2024-03-23T04:39:01;1.65;;;1.00;;
54388;SDS011;40975;50.390;8.640;2024-03-23T04:41:27;1.17;;;0.70;;
54388;SDS011;40975;50.390;8.640;2024-03-23T04:43:52;1.63;;;0.30;;
54388;SDS011;40975;50.390;8.640;2024-03-23T04:46:17;1.13;;;0.57;;
54388;SDS011;40975;50.390;8.640;2024-03-23T04:48:43;1.20;;;0.63;;
54388;SDS011;40975;50.390;8.640;2024-03-23T04:51:09;1.75;;;0.70;;
54388;SDS011;40975;50.390;8.640;2024-03-23T04:53:37;1.02;;;0.60;;
54388;SDS011;40975;50.390;8.640;2024-03-23T04:56:03;1.00;;;0.60;;
54388;SDS011;40975;50.390;8.640;2024-03-23T04:58:29;1.08;;;0.57;;
54388;SDS011;40975;50.390;8.640;2024-03-23T05:00:57;2.75;;;1.00;;
54388;SDS011;40975;50.390;8.640;2024-03-23T05:03:23;0.98;;;0.50;;
54388;SDS011;40975;50.390;8.640;2024-03-23T05:05:49;1.20;;;0.55;;
54388;SDS011;40975;50.390;8.640;2024-03-23T05:08:15;1.17;;;0.60;;
54388;SDS011;40975;50.390;8.640;2024-03-23T05:10:43;1.65;;;0.68;;
54388;SDS011;40975;50.390;8.640;2024-03-23T05:13:09;1.33;;;0.40;;
54388;SDS011;40975;50.390;8.640;2024-03-23T05:15:34;1.00;;;0.40;;
54388;SDS011;40975;50.390;8.640;2024-03-23T05:18:00;1.88;;;0.68;;
54388;SDS011;40975;50.390;8.640;2024-03-23T05:20:26;4.07;;;1.00;;
54388;SDS011;40975;50.390;8.640;2024-03-23T05:22:51;2.28;;;0.60;;
54388;SDS011;40975;50.390;8.640;2024-03-23T05:25:16;0.50;;;0.50;;
54388;SDS011;40975;50.390;8.640;2024-03-23T05:27:42;0.35;;;0.35;;
54388;SDS011;40975;50.390;8.640;2024-03-23T05:30:07;0.73;;;0.38;;
54388;SDS011;40975;50.390;8.640;2024-03-23T05:32:34;0.40;;;0.20;;
54388;SDS011;40975;50.390;8.640;2024-03-23T05:34:59;2.10;;;0.30;;
54388;SDS011;40975;50.390;8.640;2024-03-23T05:37:25;0.32;;;0.20;;
54388;SDS011;40975;50.390;8.640;2024-03-23T05:39:50;0.50;;;0.20;;
54388;SDS011;40975;50.390;8.640;2024-03-23T05:42:16;0.40;;;0.25;;
54388;SDS011;40975;50.390;8.640;2024-03-23T05:44:45;0.55;;;0.10;;
54388;SDS011;40975;50.390;8.640;2024-03-23T05:47:11;0.63;;;0.20;;
54388;SDS011;40975;50.390;8.640;2024-03-23T05:49:41;0.52;;;0.20;;
54388;SDS011;40975;50.390;8.640;2024-03-23T05:52:07;0.60;;;0.22;;
54388;SDS011;40975;50.390;8.640;2024-03-23T05:54:34;0.75;;;0.20;;
54388;SDS011;40975;50.390;8.640;2024-03-23T05:56:59;1.48;;;0.38;;
54388;SDS011;40975;50.390;8.640;2024-03-23T05:59:24;0.10;;;0.10;;
54388;SDS011;40975;50.390;8.640;2024-03-23T06:01:50;0.50;;;0.30;;
54388;SDS011;40975;50.390;8.640;2024-03-23T06:04:15;1.27;;;1.05;;
54388;SDS011;40975;50.390;8.640;2024-03-23T06:06:41;0.82;;;0.60;;
54388;SDS011;40975;50.390;8.640;2024-03-23T06:09:07;1.17;;;0.20;;
54388;SDS011;40975;50.390;8.640;2024-03-23T06:11:32;0.52;;;0.47;;
54388;SDS011;40975;50.390;8.640;2024-03-23T06:13:57;0.70;;;0.38;;
54388;SDS011;40975;50.390;8.640;2024-03-23T06:16:23;0.30;;;0.20;;
54388;SDS011;40975;50.390;8.640;2024-03-23T06:18:49;0.20;;;0.20;;
54388;SDS011;40975;50.390;8.640;2024-03-23T06:21:15;0.45;;;0.30;;
54388;SDS011;40975;50.390;8.640;2024-03-23T06:23:41;0.25;;;0.17;;
54388;SDS011;40975;50.390;8.640;2024-03-23T06:26:07;0.20;;;0.10;;
54388;SDS011;40975;50.390;8.640;2024-03-23T06:28:33;0.68;;;0.30;;
54388;SDS011;40975;50.390;8.640;2024-03-23T06:30:59;0.20;;;0.20;;
54388;SDS011;40975;50.390;8.640;2024-03-23T06:33:24;0.25;;;0.22;;
54388;SDS011;40975;50.390;8.640;2024-03-23T06:35:50;1.55;;;0.20;;
54388;SDS011;40975;50.390;8.640;2024-03-23T06:38:17;1.00;;;0.45;;
54388;SDS011;40975;50.390;8.640;2024-03-23T06:40:43;0.38;;;0.30;;
54388;SDS011;40975;50.390;8.640;2024-03-23T06:43:13;0.30;;;0.20;;
54388;SDS011;40975;50.390;8.640;2024-03-23T06:45:38;1.42;;;0.30;;
54388;SDS011;40975;50.390;8.640;2024-03-23T06:48:04;0.73;;;0.30;;
54388;SDS011;40975;50.390;8.640;2024-03-23T06:50:33;1.02;;;0.45;;
54388;SDS011;40975;50.390;8.640;2024-03-23T06:52:58;0.32;;;0.30;;
54388;SDS011;40975;50.390;8.640;2024-03-23T06:55:24;2.10;;;0.55;;
54388;SDS011;40975;50.390;8.640;2024-03-23T06:57:51;0.60;;;0.40;;
54388;SDS011;40975;50.390;8.640;2024-03-23T07:00:17;1.85;;;0.30;;
54388;SDS011;40975;50.390;8.640;2024-03-23T07:02:43;1.23;;;0.45;;
54388;SDS011;40975;50.390;8.640;2024-03-23T07:05:09;3.53;;;0.70;;
54388;SDS011;40975;50.390;8.640;2024-03-23T07:07:35;1.00;;;0.70;;
54388;SDS011;40975;50.390;8.640;2024-03-23T07:10:01;0.80;;;0.40;;
54388;SDS011;40975;50.390;8.640;2024-03-23T07:12:28;0.60;;;0.60;;
54388;SDS011;40975;50.390;8.640;2024-03-23T07:14:53;1.42;;;0.45;;
54388;SDS011;40975;50.390;8.640;2024-03-23T07:17:18;0.75;;;0.50;;
54388;SDS011;40975;50.390;8.640;2024-03-23T07:19:44;4.97;;;1.10;;
54388;SDS011;40975;50.390;8.640;2024-03-23T07:22:09;0.57;;;0.43;;
54388;SDS011;40975;50.390;8.640;2024-03-23T07:24:35;2.28;;;0.73;;
54388;SDS011;40975;50.390;8.640;2024-03-23T07:27:01;2.08;;;0.55;;
54388;SDS011;40975;50.390;8.640;2024-03-23T07:29:28;1.70;;;0.40;;
54388;SDS011;40975;50.390;8.640;2024-03-23T07:31:53;3.75;;;0.90;;
54388;SDS011;40975;50.390;8.640;2024-03-23T07:34:19;1.58;;;0.98;;
54388;SDS011;40975;50.390;8.640;2024-03-23T07:36:45;3.13;;;0.90;;
54388;SDS011;40975;50.390;8.640;2024-03-23T07:39:10;1.63;;;0.60;;
54388;SDS011;40975;50.390;8.640;2024-03-23T07:41:36;3.60;;;0.80;;
54388;SDS011;40975;50.390;8.640;2024-03-23T07:44:02;3.65;;;1.00;;
54388;SDS011;40975;50.390;8.640;2024-03-23T07:46:27;5.07;;;1.25;;
54388;SDS011;40975;50.390;8.640;2024-03-23T07:48:52;2.25;;;1.10;;
54388;SDS011;40975;50.390;8.640;2024-03-23T07:51:20;3.67;;;1.55;;
54388;SDS011;40975;50.390;8.640;2024-03-23T07:53:46;1.80;;;1.10;;
54388;SDS011;40975;50.390;8.640;2024-03-23T07:56:13;2.83;;;1.52;;
54388;SDS011;40975;50.390;8.640;2024-03-23T07:58:44;6.20;;;2.75;;
54388;SDS011;40975;50.390;8.640;2024-03-23T08:01:16;6.65;;;2.20;;
54388;SDS011;40975;50.390;8.640;2024-03-23T08:03:43;3.67;;;2.20;;
54388;SDS011;40975;50.390;8.640;2024-03-23T08:06:10;4.60;;;2.25;;
54388;SDS011;40975;50.390;8.640;2024-03-23T08:08:39;6.85;;;2.30;;
54388;SDS011;40975;50.390;8.640;2024-03-23T08:11:06;5.32;;;2.45;;
54388;SDS011;40975;50.390;8.640;2024-03-23T08:13:32;4.40;;;2.03;;
54388;SDS011;40975;50.390;8.640;2024-03-23T08:15:58;2.97;;;2.15;;
54388;SDS011;40975;50.390;8.640;2024-03-23T08:18:25;4.72;;;2.97;;
54388;SDS011;40975;50.390;8.640;2024-03-23T08:21:00;4.15;;;2.03;;
54388;SDS011;40975;50.390;8.640;2024-03-23T08:23:30;6.10;;;2.90;;
54388;SDS011;40975;50.390;8.640;2024-03-23T08:26:02;5.80;;;2.78;;
54388;SDS011;40975;50.390;8.640;2024-03-23T08:28:28;4.78;;;2.22;;
54388;SDS011;40975;50.390;8.640;2024-03-23T08:30:54;5.93;;;3.40;;
54388;SDS011;40975;50.390;8.640;2024-03-23T08:33:20;6.75;;;2.85;;
54388;SDS011;40975;50.390;8.640;2024-03-23T08:35:55;10.45;;;3.67;;
54388;SDS011;40975;50.390;8.640;2024-03-23T08:38:22;4.80;;;2.90;;
54388;SDS011;40975;50.390;8.640;2024-03-23T08:40:55;8.35;;;2.90;;
54388;SDS011;40975;50.390;8.640;2024-03-23T08:43:22;8.48;;;2.60;;
54388;SDS011;40975;50.390;8.640;2024-03-23T08:45:47;7.22;;;3.13;;
54388;SDS011;40975;50.390;8.640;2024-03-23T08:48:13;7.63;;;2.40;;
54388;SDS011;40975;50.390;8.640;2024-03-23T08:50:38;3.17;;;2.20;;
54388;SDS011;40975;50.390;8.640;2024-03-23T08:53:03;7.55;;;2.45;;
54388;SDS011;40975;50.390;8.640;2024-03-23T08:55:29;7.30;;;2.45;;
54388;SDS011;40975;50.390;8.640;2024-03-23T08:57:55;7.50;;;2.72;;
54388;SDS011;40975;50.390;8.640;2024-03-23T09:00:21;5.13;;;2.33;;
54388;SDS011;40975;50.390;8.640;2024-03-23T09:02:50;6.05;;;2.65;;
54388;SDS011;40975;50.390;8.640;2024-03-23T09:05:15;5.43;;;2.35;;
54388;SDS011;40975;50.390;8.640;2024-03-23T09:07:40;9.00;;;2.83;;
54388;SDS011;40975;50.390;8.640;2024-03-23T09:10:07;5.82;;;2.60;;
54388;SDS011;40975;50.390;8.640;2024-03-23T09:12:32;6.35;;;2.83;;
54388;SDS011;40975;50.390;8.640;2024-03-23T09:14:58;4.60;;;2.50;;
54388;SDS011;40975;50.390;8.640;2024-03-23T09:17:23;4.72;;;2.13;;
54388;SDS011;40975;50.390;8.640;2024-03-23T09:19:49;3.00;;;1.83;;
54388;SDS011;40975;50.390;8.640;2024-03-23T09:22:14;6.97;;;3.33;;
54388;SDS011;40975;50.390;8.640;2024-03-23T09:24:39;5.18;;;2.10;;
54388;SDS011;40975;50.390;8.640;2024-03-23T09:27:05;6.03;;;2.08;;
54388;SDS011;40975;50.390;8.640;2024-03-23T09:29:30;7.07;;;1.60;;
54388;SDS011;40975;50.390;8.640;2024-03-23T09:31:56;8.93;;;1.98;;
54388;SDS011;40975;50.390;8.640;2024-03-23T09:34:21;6.20;;;1.55;;
54388;SDS011;40975;50.390;8.640;2024-03-23T09:36:47;3.60;;;1.60;;
54388;SDS011;40975;50.390;8.640;2024-03-23T09:39:15;6.40;;;1.65;;
54388;SDS011;40975;50.390;8.640;2024-03-23T09:41:40;5.57;;;1.98;;
54388;SDS011;40975;50.390;8.640;2024-03-23T09:44:06;3.03;;;1.73;;
54388;SDS011;40975;50.390;8.640;2024-03-23T09:46:32;5.50;;;1.10;;
54388;SDS011;40975;50.390;8.640;2024-03-23T09:48:59;5.65;;;1.15;;
54388;SDS011;40975;50.390;8.640;2024-03-23T09:51:25;3.85;;;1.70;;
54388;SDS011;40975;50.390;8.640;2024-03-23T09:53:51;6.70;;;1.67;;
54388;SDS011;40975;50.390;8.640;2024-03-23T09:56:17;5.13;;;2.05;;
54388;SDS011;40975;50.390;8.640;2024-03-23T09:58:42;7.22;;;1.80;;
54388;SDS011;40975;50.390;8.640;2024-03-23T10:01:08;5.10;;;1.20;;
54388;SDS011;40975;50.390;8.640;2024-03-23T10:03:42;4.93;;;1.10;;
54388;SDS011;40975;50.390;8.640;2024-03-23T10:06:08;6.05;;;2.03;;
54388;SDS011;40975;50.390;8.640;2024-03-23T10:08:33;4.60;;;1.27;;
54388;SDS011;40975;50.390;8.640;2024-03-23T10:11:12;7.28;;;1.92;;
54388;SDS011;40975;50.390;8.640;2024-03-23T10:13:38;5.10;;;1.75;;
54388;SDS011;40975;50.390;8.640;2024-03-23T10:16:09;7.00;;;1.73;;
54388;SDS011;40975;50.390;8.640;2024-03-23T10:18:39;5.95;;;1.65;;
54388;SDS011;40975;50.390;8.640;2024-03-23T10:23:30;2.88;;;1.20;;
54388;SDS011;40975;50.390;8.640;2024-03-23T10:26:02;2.88;;;1.00;;
54388;SDS011;40975;50.390;8.640;2024-03-23T10:28:37;2.20;;;1.02;;
54388;SDS011;40975;50.390;8.640;2024-03-23T10:31:15;3.13;;;1.08;;
54388;SDS011;40975;50.390;8.640;2024-03-23T10:33:44;5.38;;;1.00;;
54388;SDS011;40975;50.390;8.640;2024-03-23T10:36:13;1.10;;;0.70;;
54388;SDS011;40975;50.390;8.640;2024-03-23T10:38:42;3.13;;;0.57;;
54388;SDS011;40975;50.390;8.640;2024-03-23T10:41:09;6.72;;;1.10;;
54388;SDS011;40975;50.390;8.640;2024-03-23T10:43:36;3.58;;;0.70;;
54388;SDS011;40975;50.390;8.640;2024-03-23T10:46:02;2.95;;;0.52;;
54388;SDS011;40975;50.390;8.640;2024-03-23T10:48:27;4.68;;;1.10;;
54388;SDS011;40975;50.390;8.640;2024-03-23T10:50:53;2.95;;;0.70;;
54388;SDS011;40975;50.390;8.640;2024-03-23T10:53:20;2.53;;;0.85;;
54388;SDS011;40975;50.390;8.640;2024-03-23T10:55:50;2.83;;;0.80;;
54388;SDS011;40975;50.390;8.640;2024-03-23T10:58:16;0.32;;;0.28;;
54388;SDS011;40975;50.390;8.640;2024-03-23T11:00:46;2.13;;;0.90;;
54388;SDS011;40975;50.390;8.640;2024-03-23T11:06:03;1.38;;;0.70;;
54388;SDS011;40975;50.390;8.640;2024-03-23T11:08:36;2.00;;;0.80;;
54388;SDS011;40975;50.390;8.640;2024-03-23T11:13:39;2.50;;;0.75;;
54388;SDS011;40975;50.390;8.640;2024-03-23T11:16:16;6.60;;;0.93;;
54388;SDS011;40975;50.390;8.640;2024-03-23T11:18:49;3.33;;;0.93;;
54388;SDS011;40975;50.390;8.640;2024-03-23T11:24:19;3.65;;;0.75;;
54388;SDS011;40975;50.390;8.640;2024-03-23T11:26:46;3.60;;;0.82;;
54388;SDS011;40975;50.390;8.640;2024-03-23T11:29:12;2.97;;;1.08;;
54388;SDS011;40975;50.390;8.640;2024-03-23T11:31:39;3.90;;;1.55;;
54388;SDS011;40975;50.390;8.640;2024-03-23T11:34:14;5.78;;;1.10;;
54388;SDS011;40975;50.390;8.640;2024-03-23T11:36:40;2.55;;;1.05;;
54388;SDS011;40975;50.390;8.640;2024-03-23T11:39:15;4.28;;;1.00;;
54388;SDS011;40975;50.390;8.640;2024-03-23T11:41:48;5.53;;;0.98;;
54388;SDS011;40975;50.390;8.640;2024-03-23T11:44:23;2.38;;;0.88;;
54388;SDS011;40975;50.390;8.640;2024-03-23T11:46:51;4.55;;;1.08;;
54388;SDS011;40975;50.390;8.640;2024-03-23T11:51:49;5.38;;;1.30;;
54388;SDS011;40975;50.390;8.640;2024-03-23T11:54:16;2.47;;;1.10;;
54388;SDS011;40975;50.390;8.640;2024-03-23T11:59:40;3.28;;;0.80;;
54388;SDS011;40975;50.390;8.640;2024-03-23T12:04:32;2.00;;;0.75;;
54388;SDS011;40975;50.390;8.640;2024-03-23T12:07:14;3.67;;;0.88;;
54388;SDS011;40975;50.390;8.640;2024-03-23T12:12:13;4.65;;;0.77;;
54388;SDS011;40975;50.390;8.640;2024-03-23T12:14:41;1.65;;;0.70;;
54388;SDS011;40975;50.390;8.640;2024-03-23T12:19:35;2.08;;;0.77;;
54388;SDS011;40975;50.390;8.640;2024-03-23T12:22:02;3.35;;;0.80;;
54388;SDS011;40975;50.390;8.640;2024-03-23T12:24:32;5.40;;;1.57;;
54388;SDS011;40975;50.390;8.640;2024-03-23T12:27:02;6.43;;;1.60;;
54388;SDS011;40975;50.390;8.640;2024-03-23T12:29:29;6.63;;;1.60;;
54388;SDS011;40975;50.390;8.640;2024-03-23T12:31:58;4.18;;;1.25;;
54388;SDS011;40975;50.390;8.640;2024-03-23T12:34:25;4.07;;;1.27;;
54388;SDS011;40975;50.390;8.640;2024-03-23T12:36:50;4.80;;;1.40;;
54388;SDS011;40975;50.390;8.640;2024-03-23T12:39:15;5.70;;;1.52;;
54388;SDS011;40975;50.390;8.640;2024-03-23T12:41:41;3.58;;;1.20;;
54388;SDS011;40975;50.390;8.640;2024-03-23T12:44:06;3.38;;;0.68;;
54388;SDS011;40975;50.390;8.640;2024-03-23T12:46:33;4.25;;;1.33;;
54388;SDS011;40975;50.390;8.640;2024-03-23T12:48:59;5.15;;;1.05;;
54388;SDS011;40975;50.390;8.640;2024-03-23T12:51:24;2.03;;;0.60;;
54388;SDS011;40975;50.390;8.640;2024-03-23T12:53:50;1.92;;;0.70;;
54388;SDS011;40975;50.390;8.640;2024-03-23T12:56:16;1.90;;;0.38;;
54388;SDS011;40975;50.390;8.640;2024-03-23T12:58:41;1.25;;;0.60;;
54388;SDS011;40975;50.390;8.640;2024-03-23T13:01:06;1.08;;;0.63;;
54388;SDS011;40975;50.390;8.640;2024-03-23T13:03:32;4.82;;;0.68;;
54388;SDS011;40975;50.390;8.640;2024-03-23T13:05:57;3.85;;;0.60;;
54388;SDS011;40975;50.390;8.640;2024-03-23T13:08:23;2.13;;;0.70;;
54388;SDS011;40975;50.390;8.640;2024-03-23T13:10:51;2.85;;;1.00;;
54388;SDS011;40975;50.390;8.640;2024-03-23T13:13:17;1.67;;;0.50;;
54388;SDS011;40975;50.390;8.640;2024-03-23T13:15:42;2.78;;;0.32;;
54388;SDS011;40975;50.390;8.640;2024-03-23T13:18:07;0.55;;;0.47;;
54388;SDS011;40975;50.390;8.640;2024-03-23T13:20:35;1.65;;;0.47;;
54388;SDS011;40975;50.390;8.640;2024-03-23T13:23:01;5.35;;;0.60;;
54388;SDS011;40975;50.390;8.640;2024-03-23T13:25:26;1.27;;;0.40;;
54388;SDS011;40975;50.390;8.640;2024-03-23T13:27:51;1.90;;;0.47;;
54388;SDS011;40975;50.390;8.640;2024-03-23T13:30:17;0.68;;;0.40;;
54388;SDS011;40975;50.390;8.640;2024-03-23T13:32:42;0.35;;;0.30;;
54388;SDS011;40975;50.390;8.640;2024-03-23T13:35:08;1.27;;;0.40;;
54388;SDS011;40975;50.390;8.640;2024-03-23T13:37:33;1.13;;;0.40;;
54388;SDS011;40975;50.390;8.640;2024-03-23T13:39:59;2.72;;;0.65;;
54388;SDS011;40975;50.390;8.640;2024-03-23T13:42:24;1.27;;;0.80;;
54388;SDS011;40975;50.390;8.640;2024-03-23T13:44:51;0.60;;;0.60;;
54388;SDS011;40975;50.390;8.640;2024-03-23T13:47:16;1.33;;;0.30;;
54388;SDS011;40975;50.390;8.640;2024-03-23T13:49:41;1.23;;;0.50;;
54388;SDS011;40975;50.390;8.640;2024-03-23T13:52:07;1.08;;;0.63;;
54388;SDS011;40975;50.390;8.640;2024-03-23T13:54:33;2.17;;;0.63;;
54388;SDS011;40975;50.390;8.640;2024-03-23T13:56:58;0.52;;;0.50;;
54388;SDS011;40975;50.390;8.640;2024-03-23T13:59:24;0.70;;;0.60;;
54388;SDS011;40975;50.390;8.640;2024-03-23T14:01:49;1.58;;;0.40;;
54388;SDS011;40975;50.390;8.640;2024-03-23T14:04:16;3.22;;;0.80;;
54388;SDS011;40975;50.390;8.640;2024-03-23T14:06:42;2.90;;;0.50;;
54388;SDS011;40975;50.390;8.640;2024-03-23T14:09:11;0.40;;;0.35;;
54388;SDS011;40975;50.390;8.640;2024-03-23T14:11:36;2.53;;;0.65;;
54388;SDS011;40975;50.390;8.640;2024-03-23T14:14:02;0.57;;;0.50;;
54388;SDS011;40975;50.390;8.640;2024-03-23T14:16:29;0.45;;;0.28;;
54388;SDS011;40975;50.390;8.640;2024-03-23T14:18:55;0.40;;;0.32;;
54388;SDS011;40975;50.390;8.640;2024-03-23T14:21:20;4.03;;;0.60;;
54388;SDS011;40975;50.390;8.640;2024-03-23T14:23:45;1.40;;;0.40;;
54388;SDS011;40975;50.390;8.640;2024-03-23T14:26:11;2.78;;;0.90;;
54388;SDS011;40975;50.390;8.640;2024-03-23T14:28:36;0.65;;;0.40;;
54388;SDS011;40975;50.390;8.640;2024-03-23T14:31:02;0.80;;;0.38;;
54388;SDS011;40975;50.390;8.640;2024-03-23T14:33:28;3.28;;;0.55;;
54388;SDS011;40975;50.390;8.640;2024-03-23T14:35:54;0.40;;;0.40;;
54388;SDS011;40975;50.390;8.640;2024-03-23T14:38:23;2.80;;;0.50;;
54388;SDS011;40975;50.390;8.640;2024-03-23T14:40:49;1.05;;;0.50;;
54388;SDS011;40975;50.390;8.640;2024-03-23T14:43:14;0.85;;;0.50;;
54388;SDS011;40975;50.390;8.640;2024-03-23T14:48:34;1.75;;;0.40;;
54388;SDS011;40975;50.390;8.640;2024-03-23T14:51:00;1.17;;;0.30;;
54388;SDS011;40975;50.390;8.640;2024-03-23T14:53:29;2.20;;;0.90;;
54388;SDS011;40975;50.390;8.640;2024-03-23T14:55:55;1.35;;;0.40;;
54388;SDS011;40975;50.390;8.640;2024-03-23T14:58:21;1.23;;;0.40;;
54388;SDS011;40975;50.390;8.640;2024-03-23T15:00:48;0.43;;;0.38;;
54388;SDS011;40975;50.390;8.640;2024-03-23T15:03:14;0.47;;;0.40;;
54388;SDS011;40975;50.390;8.640;2024-03-23T15:05:39;0.60;;;0.50;;
54388;SDS011;40975;50.390;8.640;2024-03-23T15:08:05;4.88;;;0.60;;
54388;SDS011;40975;50.390;8.640;2024-03-23T15:10:32;0.47;;;0.40;;
54388;SDS011;40975;50.390;8.640;2024-03-23T15:12:58;0.38;;;0.38;;
54388;SDS011;40975;50.390;8.640;2024-03-23T15:15:23;0.40;;;0.38;;
54388;SDS011;40975;50.390;8.640;2024-03-23T15:17:49;0.68;;;0.40;;
54388;SDS011;40975;50.390;8.640;2024-03-23T15:20:15;0.77;;;0.30;;
54388;SDS011;40975;50.390;8.640;2024-03-23T15:22:41;1.23;;;0.30;;
54388;SDS011;40975;50.390;8.640;2024-03-23T15:25:07;0.77;;;0.30;;
54388;SDS011;40975;50.390;8.640;2024-03-23T15:27:33;0.32;;;0.20;;
54388;SDS011;40975;50.390;8.640;2024-03-23T15:29:59;1.05;;;0.50;;
54388;SDS011;40975;50.390;8.640;2024-03-23T15:32:24;0.98;;;0.32;;
54388;SDS011;40975;50.390;8.640;2024-03-23T15:34:50;1.38;;;0.35;;
54388;SDS011;40975;50.390;8.640;2024-03-23T15:37:15;2.35;;;0.50;;
54388;SDS011;40975;50.390;8.640;2024-03-23T15:39:41;0.70;;;0.40;;
54388;SDS011;40975;50.390;8.640;2024-03-23T15:42:06;0.50;;;0.47;;
54388;SDS011;40975;50.390;8.640;2024-03-23T15:44:32;1.45;;;0.30;;
54388;SDS011;40975;50.390;8.640;2024-03-23T15:46:57;1.77;;;0.38;;
54388;SDS011;40975;50.390;8.640;2024-03-23T15:49:23;0.70;;;0.70;;
54388;SDS011;40975;50.390;8.640;2024-03-23T15:51:48;2.53;;;0.57;;
54388;SDS011;40975;50.390;8.640;2024-03-23T15:54:13;1.20;;;0.30;;